Time;durP1;ratioP1;P1;durP2;ratioP2;P2;SDS_P1;SDS_P2;PMS_P1;PMS_P2;Temp;Humidity;BMP_temperature;BMP_pressure;BME280_temperature;BME280_humidity;BME280_pressure;Samples;Min_cycle;Max_cycle;Signal;HPM_P1;HPM_P2
2022/04/06 00:00:30;;;;;;;42.10;25.70;;;12.10;90.80;;;;;;5071187;28;20036;-63
2022/04/06 00:03:34;;;;;;;36.90;23.98;;;12.00;90.80;;;;;;5070780;28;20506;-63
2022/04/06 00:06:40;;;;;;;35.05;23.92;;;12.00;90.90;;;;;;5070655;28;20060;-63
2022/04/06 00:09:44;;;;;;;36.20;23.58;;;12.00;90.90;;;;;;5071108;28;20047;-63
2022/04/06 00:12:48;;;;;;;37.90;23.55;;;12.10;90.80;;;;;;5070968;28;20404;-63
2022/04/06 00:15:52;;;;;;;36.90;23.75;;;12.20;90.60;;;;;;5070661;28;20048;-63
2022/04/06 00:18:56;;;;;;;35.10;23.40;;;12.00;90.80;;;;;;5070594;28;20035;-63
2022/04/06 00:22:01;;;;;;;36.90;24.02;;;11.90;91.20;;;;;;5070925;28;20056;-63
2022/04/06 00:25:05;;;;;;;35.47;22.92;;;12.00;91.20;;;;;;5070688;28;20448;-63
2022/04/06 00:28:09;;;;;;;38.30;21.75;;;11.90;91.00;;;;;;5070689;28;20151;-63
2022/04/06 00:31:14;;;;;;;34.28;22.83;;;11.90;91.10;;;;;;5070895;28;20048;-63
2022/04/06 00:34:18;;;;;;;30.60;20.67;;;11.60;91.50;;;;;;5070697;28;20051;-63
2022/04/06 00:37:22;;;;;;;28.92;18.25;;;11.60;91.40;;;;;;5070526;28;20055;-63
2022/04/06 00:40:26;;;;;;;28.52;18.00;;;11.50;91.80;;;;;;5069558;28;20044;-63
2022/04/06 00:43:31;;;;;;;22.02;16.42;;;11.50;91.80;;;;;;5070900;28;20048;-63
2022/04/06 00:46:35;;;;;;;26.38;16.00;;;11.50;91.40;;;;;;5072183;28;20324;-63
2022/04/06 00:49:39;;;;;;;29.35;16.70;;;11.50;91.70;;;;;;5074455;28;20120;-63
2022/04/06 00:52:43;;;;;;;24.52;15.68;;;11.60;91.70;;;;;;5074594;28;20389;-63
2022/04/06 00:55:48;;;;;;;25.75;15.63;;;11.60;91.60;;;;;;5074521;28;20060;-63
2022/04/06 00:58:52;;;;;;;21.08;15.18;;;11.60;91.60;;;;;;5074578;28;20051;-63
2022/04/06 01:01:57;;;;;;;21.33;15.55;;;11.70;91.50;;;;;;5074203;28;20044;-63
2022/04/06 01:05:02;;;;;;;20.85;14.48;;;11.80;91.10;;;;;;5074070;28;20629;-63
2022/04/06 01:08:06;;;;;;;20.67;14.50;;;11.80;91.20;;;;;;5074405;28;20055;-63
2022/04/06 01:11:10;;;;;;;32.28;15.13;;;11.80;91.30;;;;;;5074245;28;20044;-63
2022/04/06 01:14:15;;;;;;;21.95;13.15;;;11.60;91.40;;;;;;5074077;28;20040;-63
2022/04/06 01:17:20;;;;;;;25.67;13.68;;;11.60;91.80;;;;;;5073872;28;20035;-63
2022/04/06 01:20:24;;;;;;;25.88;15.45;;;11.70;91.60;;;;;;5073802;28;20074;-63
2022/04/06 01:23:28;;;;;;;22.00;15.05;;;11.80;91.40;;;;;;5074573;28;20491;-63
2022/04/06 01:26:34;;;;;;;25.98;15.63;;;11.90;91.60;;;;;;5074187;28;20055;-63
2022/04/06 01:29:40;;;;;;;26.23;17.23;;;11.90;91.50;;;;;;5073273;28;20036;-63
2022/04/06 01:32:44;;;;;;;28.58;16.85;;;11.80;92.20;;;;;;5073680;28;20032;-63
2022/04/06 01:35:49;;;;;;;31.40;17.00;;;11.80;91.90;;;;;;5073677;28;20126;-63
2022/04/06 01:38:53;;;;;;;26.85;16.73;;;11.70;92.00;;;;;;5073619;28;20111;-63
2022/04/06 01:41:57;;;;;;;22.27;16.75;;;11.80;91.90;;;;;;5073529;28;20052;-63
2022/04/06 01:45:02;;;;;;;28.92;17.42;;;11.80;91.70;;;;;;5073465;28;20499;-63
2022/04/06 01:48:06;;;;;;;27.35;18.30;;;11.90;91.60;;;;;;5073382;28;20048;-63
2022/04/06 01:54:32;;;;;;;27.65;18.23;;;11.80;91.80;;;;;;5073218;28;20506;-63
2022/04/06 01:57:37;;;;;;;26.05;17.42;;;11.80;91.70;;;;;;5072405;28;20043;-63
2022/04/06 02:00:42;;;;;;;30.20;18.77;;;11.80;91.70;;;;;;5073037;28;20040;-63
2022/04/06 02:03:46;;;;;;;25.15;18.10;;;11.80;91.70;;;;;;5073276;28;20657;-64
2022/04/06 02:06:50;;;;;;;28.52;17.60;;;11.70;92.10;;;;;;5072839;28;20060;-63
2022/04/06 02:09:54;;;;;;;25.08;17.48;;;11.60;92.00;;;;;;5073075;28;20523;-63
2022/04/06 02:12:58;;;;;;;30.25;18.15;;;11.60;92.20;;;;;;5072964;28;20507;-63
2022/04/06 02:16:02;;;;;;;31.27;18.77;;;11.70;92.10;;;;;;5073071;28;20404;-63
2022/04/06 02:19:06;;;;;;;32.42;18.48;;;11.70;91.80;;;;;;5073150;28;20059;-63
2022/04/06 02:22:11;;;;;;;32.95;19.08;;;11.70;91.90;;;;;;5072645;28;20043;-63
2022/04/06 02:25:15;;;;;;;24.75;17.50;;;11.70;92.20;;;;;;5072626;28;20048;-63
2022/04/06 02:28:18;;;;;;;32.45;17.98;;;11.70;92.20;;;;;;5072737;28;20547;-63
2022/04/06 02:31:23;;;;;;;32.00;17.60;;;11.70;92.20;;;;;;5072455;28;20055;-63
2022/04/06 02:34:27;;;;;;;29.30;19.20;;;11.70;92.20;;;;;;5072658;28;20043;-63
2022/04/06 02:37:31;;;;;;;29.70;19.27;;;11.70;92.30;;;;;;5072842;28;20535;-63
2022/04/06 02:40:35;;;;;;;32.00;20.13;;;11.60;92.50;;;;;;5072361;28;20040;-63
2022/04/06 02:43:39;;;;;;;35.30;20.13;;;11.60;92.70;;;;;;5071829;28;20039;-63
2022/04/06 02:46:45;;;;;;;27.23;19.15;;;11.60;93.00;;;;;;5072330;28;20237;-63
2022/04/06 02:49:49;;;;;;;27.25;18.85;;;11.80;93.10;;;;;;5072280;28;20046;-63
2022/04/06 02:52:53;;;;;;;29.90;19.38;;;11.80;92.80;;;;;;5072082;28;20055;-63
2022/04/06 02:55:57;;;;;;;32.42;19.50;;;11.70;92.90;;;;;;5071228;28;20048;-63
2022/04/06 02:59:01;;;;;;;27.67;19.27;;;11.70;93.20;;;;;;5072164;28;20618;-63
2022/04/06 03:02:05;;;;;;;26.67;19.35;;;11.70;93.40;;;;;;5071918;28;20046;-63
2022/04/06 03:05:10;;;;;;;35.78;20.70;;;11.70;93.50;;;;;;5071831;28;20036;-63
2022/04/06 03:08:15;;;;;;;28.08;19.90;;;11.70;93.60;;;;;;5072015;28;20531;-63
2022/04/06 03:11:19;;;;;;;31.80;20.20;;;11.70;93.50;;;;;;5072219;28;20384;-63
2022/04/06 03:14:23;;;;;;;32.35;19.95;;;11.70;93.20;;;;;;5071630;28;20043;-63
2022/04/06 03:17:27;;;;;;;30.95;19.10;;;11.70;93.00;;;;;;5071542;28;20044;-63
2022/04/06 03:20:31;;;;;;;31.60;19.27;;;11.70;92.80;;;;;;5071759;28;20063;-63
2022/04/06 03:23:35;;;;;;;24.90;18.23;;;11.70;93.00;;;;;;5071786;28;20061;-63
2022/04/06 03:26:39;;;;;;;29.02;19.50;;;11.60;93.00;;;;;;5071516;28;20051;-63
2022/04/06 03:29:43;;;;;;;29.52;18.95;;;11.60;93.20;;;;;;5071520;28;20044;-63
2022/04/06 03:32:47;;;;;;;26.88;18.85;;;11.60;93.20;;;;;;5071767;28;20071;-63
2022/04/06 03:35:51;;;;;;;24.70;18.40;;;11.60;93.50;;;;;;5071588;28;20503;-63
2022/04/06 03:38:55;;;;;;;29.95;19.48;;;11.60;93.50;;;;;;5071384;28;20495;-63
2022/04/06 03:42:00;;;;;;;29.83;19.10;;;11.50;93.60;;;;;;5071421;28;20040;-63
2022/04/06 03:45:04;;;;;;;28.55;19.77;;;11.50;93.90;;;;;;5071204;28;20044;-63
2022/04/06 03:48:09;;;;;;;27.40;19.58;;;11.40;93.90;;;;;;5071280;28;20063;-63
2022/04/06 03:51:12;;;;;;;29.23;19.63;;;11.50;94.00;;;;;;5071084;28;20051;-63
2022/04/06 03:54:16;;;;;;;55.28;49.53;;;11.40;94.00;;;;;;5070310;28;20044;-63
2022/04/06 03:57:21;;;;;;;34.38;21.13;;;11.50;94.10;;;;;;5071472;28;20099;-63
2022/04/06 04:00:25;;;;;;;29.80;20.42;;;11.40;94.00;;;;;;5070816;28;20059;-63
2022/04/06 04:03:29;;;;;;;36.72;27.38;;;11.40;94.00;;;;;;5071042;28;20049;-63
2022/04/06 04:06:33;;;;;;;34.30;23.80;;;11.40;94.10;;;;;;5070508;28;20052;-63
2022/04/06 04:09:37;;;;;;;38.85;20.13;;;11.40;94.30;;;;;;5070804;28;20044;-63
2022/04/06 04:12:41;;;;;;;25.77;19.08;;;11.40;94.30;;;;;;5070854;28;20043;-63
2022/04/06 04:15:45;;;;;;;28.50;18.92;;;11.40;94.40;;;;;;5070844;28;20404;-63
2022/04/06 04:18:49;;;;;;;31.98;18.67;;;11.40;94.50;;;;;;5070797;28;20403;-63
2022/04/06 04:21:53;;;;;;;28.52;19.33;;;11.40;94.40;;;;;;5070265;28;20500;-63
2022/04/06 04:24:57;;;;;;;26.00;18.63;;;11.40;94.30;;;;;;5071029;28;20043;-63
2022/04/06 04:28:00;;;;;;;31.75;18.73;;;11.40;94.10;;;;;;5070756;28;20048;-63
2022/04/06 04:31:04;;;;;;;30.17;18.58;;;11.30;94.30;;;;;;5070693;28;20044;-63
2022/04/06 04:34:08;;;;;;;29.35;19.67;;;11.20;94.40;;;;;;5070892;28;20051;-63
2022/04/06 04:37:12;;;;;;;28.00;18.17;;;11.20;94.40;;;;;;5070905;28;20598;-63
2022/04/06 04:40:16;;;;;;;31.17;18.25;;;11.20;94.50;;;;;;5070480;28;20047;-63
2022/04/06 04:43:22;;;;;;;29.73;18.65;;;11.20;94.40;;;;;;5070502;28;20048;-63
2022/04/06 04:46:26;;;;;;;44.63;27.15;;;11.30;94.50;;;;;;5070649;28;20076;-63
2022/04/06 04:49:31;;;;;;;26.23;19.13;;;11.30;94.50;;;;;;5070433;28;20071;-63
2022/04/06 04:52:35;;;;;;;30.73;18.83;;;11.20;94.60;;;;;;5070548;28;20412;-63
2022/04/06 04:55:40;;;;;;;36.17;20.20;;;11.10;94.90;;;;;;5070689;28;20055;-63
2022/04/06 04:58:44;;;;;;;41.85;21.30;;;11.20;95.00;;;;;;5070431;28;20047;-63
2022/04/06 05:01:48;;;;;;;46.50;20.33;;;11.30;95.10;;;;;;5070566;28;20056;-63
2022/04/06 05:04:52;;;;;;;30.83;19.25;;;11.30;95.00;;;;;;5070472;28;20036;-63
2022/04/06 05:07:58;;;;;;;37.50;18.65;;;11.30;94.90;;;;;;5069894;28;20079;-63
2022/04/06 05:11:02;;;;;;;40.50;19.48;;;11.40;94.80;;;;;;5069859;28;20527;-63
2022/04/06 05:14:06;;;;;;;38.22;21.42;;;11.40;94.90;;;;;;5070145;28;20051;-63
2022/04/06 05:17:10;;;;;;;41.72;21.30;;;11.50;94.80;;;;;;5070158;28;20040;-63
2022/04/06 05:20:15;;;;;;;40.85;22.02;;;11.60;94.50;;;;;;5070098;28;20068;-63
2022/04/06 05:23:19;;;;;;;32.05;19.73;;;11.70;94.40;;;;;;5070133;28;20044;-66
2022/04/06 05:26:23;;;;;;;27.85;18.45;;;11.80;94.40;;;;;;5070148;28;20503;-63
2022/04/06 05:29:27;;;;;;;34.90;20.20;;;12.10;94.60;;;;;;5070219;28;20048;-64
2022/04/06 05:32:31;;;;;;;41.63;21.00;;;12.30;94.00;;;;;;5070260;28;20400;-65
2022/04/06 05:35:35;;;;;;;41.75;21.55;;;12.30;93.50;;;;;;5073659;28;20040;-64
2022/04/06 05:38:40;;;;;;;35.22;21.15;;;12.30;93.50;;;;;;5073893;28;20048;-63
2022/04/06 05:41:44;;;;;;;38.95;21.27;;;12.30;93.70;;;;;;5073416;28;20064;-64
2022/04/06 05:44:48;;;;;;;32.05;21.67;;;12.40;93.50;;;;;;5073679;28;20293;-64
2022/04/06 05:47:52;;;;;;;42.72;20.40;;;12.60;93.50;;;;;;5073299;28;20385;-64
2022/04/06 05:50:56;;;;;;;47.33;21.27;;;12.70;93.00;;;;;;5073037;28;20043;-64
2022/04/06 05:54:00;;;;;;;41.17;19.30;;;12.70;92.60;;;;;;5073743;28;20047;-64
2022/04/06 05:57:04;;;;;;;31.33;17.65;;;12.80;92.40;;;;;;5073645;28;20047;-64
2022/04/06 06:00:09;;;;;;;30.15;17.10;;;12.80;91.80;;;;;;5073278;28;20067;-64
2022/04/06 06:03:16;;;;;;;33.88;17.30;;;12.90;91.50;;;;;;5072977;28;20400;-63
2022/04/06 06:06:20;;;;;;;33.38;17.67;;;12.90;91.60;;;;;;5072779;28;20055;-64
2022/04/06 06:09:24;;;;;;;33.35;17.80;;;13.00;91.40;;;;;;5072780;28;20043;-64
2022/04/06 06:12:28;;;;;;;28.77;16.90;;;13.00;91.30;;;;;;5072831;28;20499;-64
2022/04/06 06:15:32;;;;;;;33.50;16.55;;;13.00;90.90;;;;;;5072703;28;20047;-63
2022/04/06 06:18:36;;;;;;;30.90;15.45;;;13.10;91.20;;;;;;5073009;28;20048;-64
2022/04/06 06:21:40;;;;;;;27.45;15.60;;;13.10;90.80;;;;;;5072751;28;20499;-65
2022/04/06 06:24:43;;;;;;;40.20;15.43;;;13.10;90.60;;;;;;5072782;28;20047;-64
2022/04/06 06:27:47;;;;;;;30.33;15.73;;;13.00;90.30;;;;;;5072501;28;20079;-64
2022/04/06 06:30:51;;;;;;;30.13;16.55;;;13.00;90.60;;;;;;5071761;28;20048;-66
2022/04/06 06:33:56;;;;;;;29.70;15.45;;;13.00;90.80;;;;;;5072510;28;20047;-68
2022/04/06 06:36:59;;;;;;;33.22;15.38;;;13.00;90.50;;;;;;5072626;28;20043;-66
2022/04/06 06:40:04;;;;;;;40.08;15.93;;;13.00;90.20;;;;;;5072472;28;20051;-64
2022/04/06 06:43:08;;;;;;;35.58;16.30;;;13.00;90.10;;;;;;5071539;28;20052;-64
2022/04/06 06:46:12;;;;;;;26.08;14.57;;;13.00;90.00;;;;;;5071089;28;20051;-64
2022/04/06 06:49:16;;;;;;;29.10;15.43;;;13.10;90.00;;;;;;5071319;28;20051;-64
2022/04/06 06:52:20;;;;;;;27.60;14.68;;;13.10;89.00;;;;;;5070717;28;20051;-65
2022/04/06 06:55:24;;;;;;;25.38;15.63;;;13.10;89.50;;;;;;5071352;28;20052;-65
2022/04/06 06:58:28;;;;;;;27.58;14.88;;;13.20;89.10;;;;;;5071410;28;20048;-65
2022/04/06 07:01:32;;;;;;;25.02;14.88;;;13.30;87.80;;;;;;5071674;28;20047;-66
2022/04/06 07:04:36;;;;;;;29.20;16.25;;;13.40;87.50;;;;;;5072150;28;20052;-65
2022/04/06 07:07:51;;;;;;;28.38;15.82;;;13.50;86.80;;;;;;5072093;28;20430;-63
2022/04/06 07:10:57;;;;;;;32.53;17.50;;;13.60;86.70;;;;;;5071891;28;20039;-65
2022/04/06 07:14:01;;;;;;;34.40;16.80;;;13.70;85.70;;;;;;5071937;28;20044;-64
2022/04/06 07:17:05;;;;;;;31.48;16.58;;;13.80;85.10;;;;;;5070808;28;20392;-64
2022/04/06 07:20:10;;;;;;;26.27;15.80;;;13.90;84.90;;;;;;5071770;28;20044;-65
2022/04/06 07:23:15;;;;;;;26.83;15.15;;;13.90;86.40;;;;;;5070867;28;20403;-64
2022/04/06 07:26:19;;;;;;;58.88;23.45;;;13.90;85.70;;;;;;5071301;28;20210;-65
2022/04/06 07:29:23;;;;;;;24.25;13.98;;;14.10;84.90;;;;;;5071750;28;20059;-64
2022/04/06 07:32:28;;;;;;;24.63;15.57;;;14.40;84.50;;;;;;5071354;28;20040;-66
2022/04/06 07:35:32;;;;;;;26.27;15.10;;;14.90;84.60;;;;;;5071691;28;20518;-65
2022/04/06 07:38:36;;;;;;;35.17;16.00;;;15.30;84.10;;;;;;5071296;28;20048;-64
2022/04/06 07:41:40;;;;;;;31.08;15.93;;;15.70;82.30;;;;;;5071318;28;20047;-63
2022/04/06 07:44:44;;;;;;;26.63;15.18;;;16.00;83.80;;;;;;5071611;28;20048;-65
2022/04/06 07:47:50;;;;;;;27.10;15.27;;;16.30;82.00;;;;;;5070518;28;20416;-64
2022/04/06 07:50:57;;;;;;;24.58;11.95;;;16.60;80.60;;;;;;5070358;28;20523;-63
2022/04/06 07:54:01;;;;;;;21.35;11.25;;;17.00;80.30;;;;;;5071204;28;20059;-65
2022/04/06 07:57:05;;;;;;;29.83;12.00;;;17.50;77.90;;;;;;5057956;28;20043;-68
2022/04/06 08:00:17;;;;;;;16.02;9.68;;;17.90;76.00;;;;;;5070868;28;20511;-66
2022/04/06 08:03:21;;;;;;;;;;;18.20;74.40;;;;;;5071304;28;20285;-65
2022/04/06 08:06:25;;;;;;;17.80;9.38;;;18.20;72.20;;;;;;5070825;28;19935;-64
2022/04/06 08:09:29;;;;;;;27.95;9.77;;;18.20;71.70;;;;;;5070070;28;20055;-63
2022/04/06 08:12:32;;;;;;;15.10;7.82;;;18.30;70.80;;;;;;5070166;28;20043;-65
2022/04/06 08:15:36;;;;;;;17.58;8.05;;;18.40;70.80;;;;;;5069982;28;20047;-64
2022/04/06 08:18:40;;;;;;;13.13;7.40;;;18.60;69.00;;;;;;5070744;28;20043;-65
2022/04/06 08:21:44;;;;;;;13.63;8.05;;;18.80;68.00;;;;;;5071032;28;20111;-64
2022/04/06 08:24:49;;;;;;;15.15;8.32;;;18.90;67.80;;;;;;5070910;28;20051;-66
2022/04/06 08:27:53;;;;;;;13.85;8.07;;;19.10;67.80;;;;;;5070755;28;20071;-63
2022/04/06 08:30:58;;;;;;;21.08;9.50;;;19.20;67.80;;;;;;5070403;28;20194;-65
2022/04/06 08:34:11;;;;;;;16.20;7.72;;;19.30;67.10;;;;;;5070800;28;20071;-65
2022/04/06 08:37:15;;;;;;;15.80;8.65;;;19.40;66.80;;;;;;5070841;28;20056;-66
2022/04/06 08:40:26;;;;;;;11.25;7.05;;;19.50;65.60;;;;;;5070453;28;20044;-67
2022/04/06 08:43:31;;;;;;;21.50;8.25;;;19.50;65.70;;;;;;5070421;28;20051;-64
2022/04/06 08:46:36;;;;;;;17.90;8.55;;;19.60;66.70;;;;;;5070453;28;20396;-64
2022/04/06 08:49:41;;;;;;;14.50;8.45;;;19.70;67.00;;;;;;5070419;28;20067;-65
2022/04/06 08:52:47;;;;;;;22.45;9.00;;;19.80;67.10;;;;;;5070683;28;20041;-66
2022/04/06 08:55:51;;;;;;;15.77;8.57;;;19.80;66.50;;;;;;5070237;28;20639;-63
2022/04/06 08:58:55;;;;;;;15.80;8.27;;;19.90;68.90;;;;;;5069777;28;20048;-65
2022/04/06 09:01:59;;;;;;;16.35;7.93;;;20.00;68.30;;;;;;5070658;28;20400;-64
2022/04/06 09:05:03;;;;;;;14.35;7.80;;;20.10;66.90;;;;;;5070294;28;20047;-64
2022/04/06 09:08:07;;;;;;;20.65;9.05;;;20.20;66.40;;;;;;5072791;28;20067;-65
2022/04/06 09:11:20;;;;;;;22.13;9.82;;;20.20;65.80;;;;;;5073448;28;20044;-69
2022/04/06 09:14:31;;;;;;;24.42;9.68;;;20.20;64.80;;;;;;5073909;28;20055;-66
2022/04/06 09:17:46;;;;;;;13.52;8.23;;;20.10;63.30;;;;;;5074065;28;20052;-68
2022/04/06 09:21:00;;;;;;;14.10;8.32;;;20.10;63.40;;;;;;5072873;28;20499;-66
2022/04/06 09:24:04;;;;;;;15.77;8.60;;;20.10;63.90;;;;;;5073771;28;20043;-67
2022/04/06 09:27:08;;;;;;;18.92;7.65;;;20.10;62.50;;;;;;5072941;28;20051;-65
2022/04/06 09:30:12;;;;;;;20.35;7.90;;;20.20;62.60;;;;;;5073550;28;20043;-64
2022/04/06 09:33:18;;;;;;;11.43;7.18;;;20.20;61.80;;;;;;5073836;28;20495;-64
2022/04/06 09:36:25;;;;;;;11.20;6.78;;;20.10;62.00;;;;;;5073553;28;20044;-64
2022/04/06 09:39:42;;;;;;;12.63;7.07;;;20.20;62.40;;;;;;5073467;28;20060;-67
2022/04/06 09:42:51;;;;;;;12.05;6.18;;;20.40;61.50;;;;;;5073445;28;20044;-64
2022/04/06 09:49:24;;;;;;;14.07;6.80;;;20.30;60.00;;;;;;5073096;28;20523;-65
2022/04/06 09:52:30;;;;;;;13.07;5.90;;;20.50;59.00;;;;;;5073320;28;20107;-64
2022/04/06 09:55:36;;;;;;;7.50;5.18;;;20.60;58.50;;;;;;5073208;28;20111;-65
2022/04/06 09:58:41;;;;;;;11.77;5.85;;;20.70;57.30;;;;;;5072352;28;20523;-65
2022/04/06 10:01:48;;;;;;;15.15;5.65;;;20.80;57.80;;;;;;5073422;28;20047;-66
2022/04/06 10:04:53;;;;;;;9.10;5.07;;;20.90;57.60;;;;;;5073182;28;20055;-66
2022/04/06 10:08:05;;;;;;;12.25;5.65;;;21.00;57.10;;;;;;5072839;28;20067;-64
2022/04/06 10:11:08;;;;;;;;;;;21.00;58.20;;;;;;5073255;28;20040;-67
2022/04/06 10:14:12;;;;;;;11.65;5.40;;;21.00;57.90;;;;;;5072950;28;19915;-65
2022/04/06 10:17:17;;;;;;;13.93;4.90;;;20.80;57.00;;;;;;5072937;28;20047;-66
2022/04/06 10:20:50;;;;;;;10.45;4.53;;;20.90;57.40;;;;;;5072354;28;20043;-66
2022/04/06 10:24:19;;;;;;;6.70;4.13;;;20.90;57.10;;;;;;5072908;28;20040;-65
2022/04/06 10:27:48;;;;;;;14.30;5.22;;;20.90;55.60;;;;;;5072651;28;20397;-65
2022/04/06 10:31:16;;;;;;;8.85;4.50;;;20.80;55.80;;;;;;5072614;28;20039;-65
2022/04/06 10:34:32;;;;;;;8.40;4.32;;;20.70;54.70;;;;;;5072560;28;20052;-65
2022/04/06 10:37:46;;;;;;;7.03;3.45;;;20.70;54.40;;;;;;5072750;28;20039;-65
2022/04/06 10:40:53;;;;;;;9.88;3.72;;;20.70;51.40;;;;;;5072654;28;20071;-64
2022/04/06 10:43:58;;;;;;;10.88;4.70;;;20.70;50.70;;;;;;5072517;28;20044;-64
2022/04/06 10:47:08;;;;;;;4.20;2.15;;;20.70;50.40;;;;;;5072585;28;20047;-65
2022/04/06 10:50:13;;;;;;;6.00;2.58;;;20.70;49.40;;;;;;5072606;28;20039;-63
2022/04/06 10:53:20;;;;;;;4.32;2.17;;;20.70;48.70;;;;;;5072152;28;20039;-65
2022/04/06 10:56:24;;;;;;;4.45;2.40;;;20.70;49.50;;;;;;5072219;28;20043;-66
2022/04/06 10:59:28;;;;;;;5.82;2.40;;;20.70;47.10;;;;;;5071936;28;20108;-65
2022/04/06 11:02:45;;;;;;;2.97;1.73;;;20.80;48.60;;;;;;5071950;28;20063;-64
2022/04/06 11:05:50;;;;;;;9.90;1.98;;;20.80;49.00;;;;;;5071367;28;20391;-64
2022/04/06 11:12:17;;;;;;;7.68;2.03;;;20.90;47.60;;;;;;5071860;28;20047;-63
2022/04/06 11:15:31;;;;;;;5.13;1.80;;;20.90;47.10;;;;;;5071746;28;20068;-63
2022/04/06 11:18:47;;;;;;;3.80;1.85;;;20.90;46.00;;;;;;5071092;28;20044;-64
2022/04/06 11:21:56;;;;;;;6.10;1.58;;;20.90;46.90;;;;;;5071473;28;20048;-62
2022/04/06 11:25:00;;;;;;;3.25;1.60;;;21.00;46.60;;;;;;5071927;28;20396;-64
2022/04/06 11:28:09;;;;;;;4.10;1.70;;;21.10;48.00;;;;;;5071292;28;20056;-63
2022/04/06 11:31:12;;;;;;;4.03;1.65;;;21.20;47.60;;;;;;5071368;28;20043;-65
2022/04/06 11:34:39;;;;;;;7.40;2.33;;;21.20;47.40;;;;;;5071249;28;20043;-63
2022/04/06 11:37:47;;;;;;;6.22;2.00;;;21.20;46.90;;;;;;5071175;28;20043;-65
2022/04/06 11:40:56;;;;;;;4.60;2.35;;;21.20;47.90;;;;;;5071097;28;20052;-63
2022/04/06 11:44:01;;;;;;;11.05;3.13;;;21.20;49.80;;;;;;5071138;28;20045;-64
2022/04/06 11:47:04;;;;;;;6.53;2.30;;;21.20;49.60;;;;;;5071775;28;20071;-64
2022/04/06 11:50:13;;;;;;;6.28;1.92;;;21.20;48.30;;;;;;5071169;28;20053;-65
2022/04/06 11:53:20;;;;;;;8.18;2.10;;;21.30;47.30;;;;;;5071085;28;20043;-63
2022/04/06 11:56:24;;;;;;;7.28;2.40;;;21.30;47.40;;;;;;5070869;28;20051;-65
2022/04/06 11:59:31;;;;;;;8.70;2.45;;;21.30;47.50;;;;;;5071078;28;20044;-65
2022/04/06 12:02:49;;;;;;;7.72;2.10;;;21.30;48.40;;;;;;5071305;28;20102;-64
2022/04/06 12:05:53;;;;;;;32.03;5.28;;;21.30;49.20;;;;;;5069829;28;20067;-65
2022/04/06 12:08:57;;;;;;;9.27;2.88;;;21.30;48.50;;;;;;5069896;28;20055;-64
2022/04/06 12:12:06;;;;;;;11.18;2.40;;;21.30;49.50;;;;;;5071206;28;20044;-65
2022/04/06 12:15:10;;;;;;;8.23;2.20;;;21.30;49.20;;;;;;5071114;28;20416;-64
2022/04/06 12:18:17;;;;;;;14.13;2.63;;;21.30;49.60;;;;;;5070580;28;20059;-64
2022/04/06 12:21:25;;;;;;;3.70;2.10;;;21.20;50.10;;;;;;5070838;28;20043;-64
2022/04/06 12:24:37;;;;;;;9.82;2.25;;;21.20;50.30;;;;;;5071026;28;20047;-65
2022/04/06 12:27:41;;;;;;;6.63;2.13;;;21.10;51.60;;;;;;5070748;28;20043;-64
2022/04/06 12:31:05;;;;;;;5.50;2.20;;;21.10;52.20;;;;;;5070844;28;20039;-64
2022/04/06 12:34:29;;;;;;;7.03;2.53;;;21.10;53.10;;;;;;5070895;28;20503;-65
2022/04/06 12:37:34;;;;;;;4.80;1.90;;;21.10;53.50;;;;;;5070717;28;20064;-65
2022/04/06 12:40:38;;;;;;;5.50;2.03;;;21.10;53.20;;;;;;5071665;28;20044;-65
2022/04/06 12:43:46;;;;;;;4.53;1.80;;;21.10;52.10;;;;;;5074494;28;20514;-64
2022/04/06 12:46:51;;;;;;;7.20;1.67;;;21.10;53.80;;;;;;5074769;28;20321;-64
2022/04/06 12:50:19;;;;;;;5.72;1.90;;;21.10;52.40;;;;;;5074391;28;20408;-64
2022/04/06 12:53:23;;;;;;;3.75;2.10;;;21.00;53.10;;;;;;5074050;28;20067;-64
2022/04/06 12:56:27;;;;;;;7.90;1.65;;;21.00;52.70;;;;;;5074540;28;20051;-64
2022/04/06 12:59:59;;;;;;;5.90;2.10;;;21.00;52.90;;;;;;5074316;28;20040;-65
2022/04/06 13:03:05;;;;;;;5.93;1.50;;;20.90;53.60;;;;;;5074422;28;20048;-66
2022/04/06 13:06:09;;;;;;;5.20;1.52;;;20.90;53.00;;;;;;5073493;28;20396;-63
2022/04/06 13:09:14;;;;;;;4.88;1.50;;;20.80;54.60;;;;;;5074183;28;20503;-64
2022/04/06 13:12:19;;;;;;;2.92;1.45;;;20.80;54.50;;;;;;5074377;28;20047;-63
2022/04/06 13:15:23;;;;;;;5.88;1.65;;;20.80;55.10;;;;;;5073569;28;20107;-63
2022/04/06 13:18:27;;;;;;;6.82;2.05;;;20.80;54.80;;;;;;5074472;28;20044;-64
2022/04/06 13:21:33;;;;;;;5.15;1.60;;;20.80;54.60;;;;;;5073645;28;20051;-64
2022/04/06 13:24:38;;;;;;;4.57;1.70;;;20.70;55.50;;;;;;5074095;28;20043;-64
2022/04/06 13:27:43;;;;;;;4.95;1.55;;;20.70;55.20;;;;;;5073659;28;20055;-64
2022/04/06 13:30:48;;;;;;;5.95;1.80;;;20.60;54.60;;;;;;5073678;28;20047;-64
2022/04/06 13:33:52;;;;;;;7.72;1.80;;;20.60;53.70;;;;;;5073644;28;20044;-63
2022/04/06 13:36:56;;;;;;;4.82;1.83;;;20.50;52.90;;;;;;5073463;28;20059;-64
2022/04/06 13:39:59;;;;;;;4.72;2.50;;;20.40;53.30;;;;;;5073604;28;20056;-64
2022/04/06 13:43:03;;;;;;;3.97;1.80;;;20.40;53.30;;;;;;5072415;28;20044;-63
2022/04/06 13:46:07;;;;;;;7.63;1.80;;;20.40;54.10;;;;;;5073550;28;20048;-63
2022/04/06 13:49:12;;;;;;;7.63;1.40;;;20.30;54.80;;;;;;5073298;28;20071;-64
2022/04/06 13:52:16;;;;;;;3.80;1.33;;;20.30;53.30;;;;;;5073715;28;20484;-64
2022/04/06 13:55:21;;;;;;;5.22;2.30;;;20.20;53.10;;;;;;5072573;28;20506;-64
2022/04/06 13:58:25;;;;;;;7.82;1.70;;;20.00;53.70;;;;;;5073317;28;20043;-64
2022/04/06 14:01:29;;;;;;;8.60;1.90;;;19.90;54.40;;;;;;5073133;28;20051;-64
2022/04/06 14:04:33;;;;;;;6.97;1.42;;;19.80;54.50;;;;;;5073222;28;20051;-62
2022/04/06 14:07:37;;;;;;;3.92;1.40;;;19.70;55.10;;;;;;5071976;28;20051;-65
2022/04/06 14:10:42;;;;;;;6.93;1.58;;;19.70;54.30;;;;;;5072781;28;20047;-66
2022/04/06 14:13:46;;;;;;;7.85;2.25;;;19.70;55.80;;;;;;5072999;28;20047;-66
2022/04/06 14:16:50;;;;;;;6.20;1.85;;;19.70;56.00;;;;;;5072782;28;20052;-65
2022/04/06 14:19:53;;;;;;;7.45;1.70;;;19.80;57.10;;;;;;5072914;28;20044;-65
2022/04/06 14:22:57;;;;;;;12.40;2.10;;;19.80;55.00;;;;;;5073207;28;20053;-66
2022/04/06 14:26:02;;;;;;;6.68;2.45;;;19.70;55.70;;;;;;5073130;28;20063;-67
2022/04/06 14:29:06;;;;;;;9.07;1.92;;;19.80;55.90;;;;;;5072268;28;20051;-63
2022/04/06 14:32:11;;;;;;;9.02;2.13;;;19.70;55.50;;;;;;5072397;28;20036;-64
2022/04/06 14:35:17;;;;;;;13.85;2.03;;;19.70;55.30;;;;;;5072466;28;20507;-66
2022/04/06 14:38:21;;;;;;;5.38;1.90;;;19.70;57.30;;;;;;5072536;28;20403;-67
2022/04/06 14:41:25;;;;;;;14.05;1.70;;;19.70;56.60;;;;;;5072692;28;20491;-65
2022/04/06 14:44:29;;;;;;;7.40;2.53;;;19.80;56.80;;;;;;5072444;28;20043;-63
2022/04/06 14:47:33;;;;;;;10.48;2.60;;;19.70;57.50;;;;;;5072023;28;20501;-65
2022/04/06 14:50:40;;;;;;;14.23;2.70;;;19.70;60.50;;;;;;5071918;28;20040;-67
2022/04/06 14:53:44;;;;;;;13.60;2.92;;;19.60;61.20;;;;;;5072010;28;20051;-65
2022/04/06 14:56:48;;;;;;;11.55;4.47;;;19.50;62.10;;;;;;5071984;28;20047;-64
2022/04/06 14:59:52;;;;;;;6.03;3.63;;;19.50;60.50;;;;;;5072245;28;20051;-65
2022/04/06 15:02:56;;;;;;;15.52;5.80;;;19.40;62.60;;;;;;5071193;28;20047;-66
2022/04/06 15:06:00;;;;;;;10.43;5.78;;;19.20;60.00;;;;;;5071592;28;20051;-65
2022/04/06 15:09:05;;;;;;;11.05;5.72;;;19.10;60.10;;;;;;5071548;28;20059;-64
2022/04/06 15:12:09;;;;;;;12.45;6.15;;;19.00;62.40;;;;;;5071895;28;20051;-65
2022/04/06 15:15:13;;;;;;;12.25;5.43;;;18.90;64.70;;;;;;5071752;28;20059;-67
2022/04/06 15:18:17;;;;;;;12.73;6.25;;;18.90;63.20;;;;;;5071818;28;20143;-65
2022/04/06 15:21:22;;;;;;;8.25;4.80;;;18.90;63.90;;;;;;5071331;28;20241;-67
2022/04/06 15:24:27;;;;;;;10.25;5.60;;;18.90;65.90;;;;;;5070840;28;20051;-65
2022/04/06 15:27:32;;;;;;;11.30;4.82;;;18.80;64.30;;;;;;5071249;28;20047;-65
2022/04/06 15:30:36;;;;;;;14.05;5.45;;;18.70;65.70;;;;;;5070953;28;20043;-64
2022/04/06 15:33:40;;;;;;;17.35;6.50;;;18.70;63.90;;;;;;5071309;28;20073;-66
2022/04/06 15:40:08;;;;;;;12.25;5.78;;;18.60;63.90;;;;;;5071050;28;20043;-66
2022/04/06 15:43:12;;;;;;;11.73;5.43;;;18.50;61.80;;;;;;5071188;28;20048;-65
2022/04/06 15:46:16;;;;;;;16.85;4.70;;;18.50;64.30;;;;;;5071099;28;20043;-65
2022/04/06 15:49:20;;;;;;;16.50;4.68;;;18.40;68.50;;;;;;5070892;28;20051;-66
2022/04/06 15:52:24;;;;;;;10.27;4.88;;;18.30;70.50;;;;;;5071112;28;20412;-65
2022/04/06 15:55:30;;;;;;;13.43;5.60;;;18.30;69.00;;;;;;5070850;28;20047;-66
2022/04/06 15:58:34;;;;;;;12.07;4.50;;;18.10;68.00;;;;;;5071107;28;20067;-64
2022/04/06 16:01:38;;;;;;;9.95;4.90;;;18.00;68.00;;;;;;5070616;28;20405;-65
2022/04/06 16:04:44;;;;;;;12.00;4.68;;;18.00;68.40;;;;;;5070983;28;20416;-64